Time;durP1;ratioP1;P1;durP2;ratioP2;P2;SDS_P1;SDS_P2;PMS_P1;PMS_P2;Temp;Humidity;BMP_temperature;BMP_pressure;BME280_temperature;BME280_humidity;BME280_pressure;Samples;Min_cycle;Max_cycle;Signal;HPM_P1;HPM_P2
2022/08/18 00:00:46;;;;;;;11.27;7.50;;;;;;;23.09;100.00;99535.81;6306677;28;20040;-71
2022/08/18 00:03:48;;;;;;;8.98;7.18;;;;;;;23.04;100.00;99542.72;6323512;28;20040;-71
2022/08/18 00:06:48;;;;;;;9.90;7.65;;;;;;;22.98;100.00;99549.59;6323412;28;20453;-71
2022/08/18 00:09:50;;;;;;;8.65;7.18;;;;;;;22.97;100.00;99549.78;6306508;28;20058;-72
2022/08/18 00:12:51;;;;;;;11.00;7.65;;;;;;;22.94;100.00;99546.47;6324638;28;20044;-74
2022/08/18 00:15:52;;;;;;;;;;;;;;;22.93;100.00;99555.44;6324965;28;20040;-73
2022/08/18 00:18:53;;;;;;;10.93;7.90;;;;;;;22.88;100.00;99552.53;6324408;28;19920;-72
2022/08/18 00:21:57;;;;;;;9.67;7.70;;;;;;;22.85;100.00;99558.22;6306408;28;20063;-72
2022/08/18 00:24:57;;;;;;;20.42;7.80;;;;;;;22.80;100.00;99549.97;6306120;28;20077;-71
2022/08/18 00:27:58;;;;;;;13.83;7.70;;;;;;;22.77;100.00;99555.66;6324238;28;20048;-72
2022/08/18 00:31:00;;;;;;;10.48;7.97;;;;;;;22.74;100.00;99548.88;6323015;28;20047;-71
2022/08/18 00:34:01;;;;;;;9.35;7.28;;;;;;;22.71;100.00;99553.72;6305679;28;20075;-74
2022/08/18 00:37:01;;;;;;;12.43;8.15;;;;;;;22.63;100.00;99553.81;6321707;28;20492;-73
2022/08/18 00:40:03;;;;;;;9.90;7.23;;;;;;;22.57;100.00;99552.75;6322076;28;20063;-73
2022/08/18 00:43:07;;;;;;;8.02;7.20;;;;;;;22.55;100.00;99560.09;6322535;28;20063;-72
2022/08/18 00:46:14;;;;;;;11.55;6.90;;;;;;;22.52;100.00;99563.91;6323722;28;20361;-72
2022/08/18 00:49:17;;;;;;;11.35;7.38;;;;;;;22.48;100.00;99569.78;6322238;28;20130;-72
2022/08/18 00:52:19;;;;;;;11.68;7.50;;;;;;;22.42;100.00;99559.88;6305905;28;20036;-71
2022/08/18 00:55:20;;;;;;;12.13;7.60;;;;;;;22.36;100.00;99550.78;6322430;28;20048;-72
2022/08/18 00:58:28;;;;;;;11.10;7.40;;;;;;;22.36;100.00;99550.78;6323503;28;20044;-72
2022/08/18 01:01:31;;;;;;;11.60;7.72;;;;;;;22.32;100.00;99555.66;6323235;28;20058;-72
2022/08/18 01:04:40;;;;;;;10.13;7.85;;;;;;;22.28;100.00;99556.22;6323285;28;20079;-71
2022/08/18 01:07:44;;;;;;;11.90;7.60;;;;;;;22.26;100.00;99552.91;6323339;28;20040;-72
2022/08/18 01:10:46;;;;;;;12.90;7.75;;;;;;;22.23;100.00;99562.06;6323025;28;20040;-72
2022/08/18 01:13:47;;;;;;;;;;;;;;;22.21;100.00;99564.03;6323530;28;20042;-74
2022/08/18 01:23:40;;;;;;;16.37;8.27;;;;;;;22.08;100.00;99543.41;6322822;28;20052;-74
2022/08/18 01:26:48;;;;;;;12.50;7.88;;;;;;;22.06;100.00;99544.59;6321643;28;20040;-73
2022/08/18 01:29:49;;;;;;;13.35;7.72;;;;;;;21.96;100.00;99539.53;6321467;28;20036;-73
2022/08/18 01:32:51;;;;;;;9.98;7.72;;;;;;;21.88;100.00;99524.50;6321432;28;20052;-73
2022/08/18 01:35:53;;;;;;;14.05;8.25;;;;;;;21.83;100.00;99521.56;6322582;28;20047;-74
2022/08/18 01:38:54;;;;;;;9.70;7.95;;;;;;;21.88;100.00;99527.16;6321064;28;20130;-74
2022/08/18 01:41:56;;;;;;;;;;;;;;;21.94;100.00;99517.66;6321602;28;20048;-73
2022/08/18 01:44:57;;;;;;;12.00;8.32;;;;;;;21.94;100.00;99528.28;6322253;28;19924;-73
2022/08/18 01:48:02;;;;;;;16.00;8.07;;;;;;;21.90;100.00;99522.47;6304241;28;20161;-73
2022/08/18 01:51:06;;;;;;;13.98;8.50;;;;;;;21.87;100.00;99522.03;6304694;28;20048;-71
2022/08/18 01:54:12;;;;;;;9.13;7.85;;;;;;;21.85;100.00;99526.72;6322259;28;20056;-71
2022/08/18 01:57:15;;;;;;;10.75;7.75;;;;;;;21.77;100.00;99516.97;6320928;28;20044;-71
2022/08/18 02:00:17;;;;;;;9.63;8.25;;;;;;;21.68;100.00;99515.38;6322031;28;20052;-72
2022/08/18 02:03:18;;;;;;;;;;;;;;;21.61;100.00;99517.94;6322527;28;20036;-72
2022/08/18 02:06:19;;;;;;;13.45;8.18;;;;;;;21.51;100.00;99525.31;6303888;28;20292;-72
2022/08/18 02:09:21;;;;;;;14.55;9.23;;;;;;;21.44;100.00;99527.03;6303860;28;20047;-72
2022/08/18 02:12:24;;;;;;;15.10;9.40;;;;;;;21.41;100.00;99529.97;6321342;28;20044;-71
2022/08/18 02:15:25;;;;;;;13.60;8.85;;;;;;;21.35;100.00;99531.50;6320559;28;20048;-71
2022/08/18 02:18:30;;;;;;;11.30;9.32;;;;;;;21.36;100.00;99529.69;6320423;28;20040;-71
2022/08/18 02:21:33;;;;;;;10.50;9.15;;;;;;;21.34;100.00;99533.34;6320498;28;20039;-71
2022/08/18 02:24:34;;;;;;;22.33;9.05;;;;;;;21.36;100.00;99529.69;6319891;28;20044;-71
2022/08/18 02:27:35;;;;;;;9.70;8.45;;;;;;;21.38;100.00;99525.88;6321624;28;20043;-71
2022/08/18 02:30:38;;;;;;;9.87;8.43;;;;;;;21.39;100.00;99530.16;6303506;28;20044;-71
2022/08/18 02:33:42;;;;;;;15.73;9.43;;;;;;;21.37;100.00;99531.34;6320137;28;20044;-73
2022/08/18 02:36:43;;;;;;;14.23;9.80;;;;;;;21.32;100.00;99523.91;6320246;28;20042;-74
2022/08/18 02:39:44;;;;;;;15.13;10.15;;;;;;;21.23;100.00;99528.47;6321213;28;20050;-74
2022/08/18 02:42:46;;;;;;;11.27;9.70;;;;;;;21.21;100.00;99525.16;6303401;28;20052;-74
2022/08/18 02:45:47;;;;;;;13.77;9.98;;;;;;;21.21;100.00;99522.50;6321290;28;20032;-73
2022/08/18 02:48:49;;;;;;;14.68;10.20;;;;;;;21.17;100.00;99526.50;6321817;28;20037;-74
2022/08/18 02:51:53;;;;;;;15.27;10.13;;;;;;;21.10;100.00;99523.69;6287013;28;20404;-73
2022/08/18 02:54:54;;;;;;;13.02;9.90;;;;;;;21.16;100.00;99519.53;6321198;28;20125;-73
2022/08/18 02:57:54;;;;;;;11.43;9.90;;;;;;;21.13;100.00;99526.00;6320096;28;20040;-73
2022/08/18 03:00:55;;;;;;;12.53;10.47;;;;;;;21.10;100.00;99525.53;6319883;28;20040;-73
2022/08/18 03:03:57;;;;;;;13.40;10.50;;;;;;;21.08;100.00;99516.94;6319932;28;20107;-73
2022/08/18 03:07:03;;;;;;;17.95;10.60;;;;;;;21.04;100.00;99523.56;6321072;28;20040;-73
2022/08/18 03:10:07;;;;;;;12.38;10.02;;;;;;;21.05;100.00;99528.72;6321061;28;20062;-74
2022/08/18 03:13:08;;;;;;;16.15;10.60;;;;;;;21.04;100.00;99536.84;6319700;28;20131;-73
2022/08/18 03:16:11;;;;;;;16.00;10.40;;;;;;;21.03;100.00;99543.16;6303051;28;20046;-74
2022/08/18 03:19:15;;;;;;;13.48;10.80;;;;;;;21.00;100.00;99548.78;6320992;28;20044;-73
2022/08/18 03:22:16;;;;;;;15.93;11.02;;;;;;;20.99;100.00;99542.66;6320879;28;20048;-73
2022/08/18 03:25:17;;;;;;;15.23;10.15;;;;;;;20.97;100.00;99542.03;6321377;28;20117;-73
2022/08/18 03:28:17;;;;;;;13.90;10.60;;;;;;;20.93;100.00;99549.47;6325582;28;20040;-73
2022/08/18 03:31:22;;;;;;;12.57;10.75;;;;;;;20.86;100.00;99547.72;6324253;28;20066;-73
2022/08/18 03:34:24;;;;;;;12.65;10.60;;;;;;;20.89;100.00;99557.97;6325483;28;20048;-73
2022/08/18 03:37:26;;;;;;;21.05;11.05;;;;;;;20.86;100.00;99561.78;6325527;28;20036;-73
2022/08/18 03:40:27;;;;;;;16.00;11.30;;;;;;;20.88;100.00;99570.41;6307124;28;20052;-71
2022/08/18 03:43:30;;;;;;;18.00;10.77;;;;;;;20.86;100.00;99567.09;6307225;28;20089;-71
2022/08/18 03:55:12;;;;;;;13.52;10.50;;;;;;;20.79;100.00;99571.41;6325896;28;20457;-72
2022/08/18 03:58:13;;;;;;;13.70;11.10;;;;;;;20.81;100.00;99561.47;6326215;28;20070;-72
2022/08/18 04:01:17;;;;;;;15.07;11.18;;;;;;;20.83;100.00;99574.56;6324929;28;20051;-71
2022/08/18 04:04:24;;;;;;;15.50;11.70;;;;;;;20.86;100.00;99588.31;6307661;28;20063;-71
2022/08/18 04:07:27;;;;;;;15.65;11.65;;;;;;;20.85;100.00;99589.28;6324046;28;20106;-71
2022/08/18 04:10:27;;;;;;;17.17;10.95;;;;;;;20.79;100.00;99597.94;6307111;28;20069;-71
2022/08/18 04:13:28;;;;;;;13.67;11.57;;;;;;;20.86;100.00;99608.69;6322725;28;20040;-72
2022/08/18 04:16:33;;;;;;;15.07;11.77;;;;;;;20.90;100.00;99610.84;6323360;28;20068;-72
2022/08/18 04:19:36;;;;;;;15.02;12.05;;;;;;;20.95;100.00;99601.53;6324085;28;20467;-71
2022/08/18 04:22:36;;;;;;;18.00;12.40;;;;;;;20.97;100.00;99604.84;6321949;28;20040;-71
2022/08/18 04:25:38;;;;;;;18.90;11.97;;;;;;;21.03;100.00;99606.81;6323462;28;20396;-72
2022/08/18 04:28:40;;;;;;;14.40;12.27;;;;;;;21.06;100.00;99598.50;6305996;28;20066;-71
2022/08/18 04:31:43;;;;;;;21.20;13.43;;;;;;;21.05;100.00;99600.31;6323175;28;20083;-74
2022/08/18 04:34:44;;;;;;;17.08;12.25;;;;;;;21.05;100.00;99596.84;6324786;28;20373;-73
2022/08/18 04:37:45;;;;;;;22.48;13.60;;;;;;;21.08;100.00;99593.84;6324560;28;20051;-74
2022/08/18 04:40:47;;;;;;;18.92;13.13;;;;;;;21.13;100.00;99588.84;6324376;28;20527;-73
2022/08/18 04:43:51;;;;;;;18.38;13.00;;;;;;;21.18;100.00;99590.97;6323184;28;20063;-73
2022/08/18 04:46:53;;;;;;;19.77;13.75;;;;;;;21.19;100.00;99596.13;6324653;28;20044;-73
2022/08/18 04:49:54;;;;;;;21.85;13.35;;;;;;;21.29;100.00;99610.00;6323389;28;20071;-73
2022/08/18 04:56:31;;;;;;;14.32;11.65;;;;;;;21.39;100.00;99622.22;6324544;28;20093;-73
2022/08/18 04:59:36;;;;;;;17.85;12.73;;;;;;;21.49;100.00;99628.16;6299920;28;20469;-74
2022/08/18 05:02:40;;;;;;;13.27;11.88;;;;;;;21.58;100.00;99627.13;6320597;28;20047;-72
2022/08/18 05:05:40;;;;;;;15.88;11.63;;;;;;;21.66;100.00;99620.91;6322937;28;20498;-73
2022/08/18 05:08:41;;;;;;;22.00;12.50;;;;;;;21.68;100.00;99622.41;6321690;28;20040;-71
2022/08/18 05:11:45;;;;;;;14.47;11.97;;;;;;;21.80;100.00;99619.34;6322240;28;20097;-71
2022/08/18 05:14:46;;;;;;;18.23;11.18;;;;;;;21.96;100.00;99629.03;6322520;28;20051;-71
2022/08/18 05:17:47;;;;;;;17.92;12.98;;;;;;;22.01;100.00;99624.84;6322989;28;20042;-73
2022/08/18 05:20:48;;;;;;;17.90;12.00;;;;;;;22.08;100.00;99615.13;6322854;28;20044;-73
2022/08/18 05:23:50;;;;;;;17.80;11.87;;;;;;;22.15;100.00;99615.25;6323057;28;20075;-73
2022/08/18 05:26:51;;;;;;;15.23;11.88;;;;;;;22.22;100.00;99613.53;6322676;28;20040;-71
2022/08/18 05:29:52;;;;;;;16.83;11.38;;;;;;;22.35;100.00;99617.44;6323671;28;20094;-73
2022/08/18 05:32:54;;;;;;;15.70;10.37;;;;;;;22.42;100.00;99613.84;6323611;28;20070;-73
2022/08/18 05:36:04;;;;;;;17.50;11.68;;;;;;;22.45;100.00;99616.16;6323364;28;20108;-74
2022/08/18 05:39:29;;;;;;;17.50;11.80;;;;;;;22.55;100.00;99607.94;6322809;28;20044;-72
2022/08/18 05:42:36;;;;;;;15.57;9.35;;;;;;;22.69;100.00;99607.13;6322078;28;20044;-72
2022/08/18 05:45:39;;;;;;;16.23;9.82;;;;;;;22.78;100.00;99605.19;6322196;28;20051;-73
2022/08/18 05:48:40;;;;;;;15.88;8.98;;;;;;;22.92;100.00;99619.50;6297504;28;20040;-72
2022/08/18 05:51:45;;;;;;;12.33;9.80;;;;;;;23.05;100.00;99619.69;6322454;28;20548;-72
2022/08/18 05:58:24;;;;;;;13.73;9.30;;;;;;;23.25;100.00;99630.59;6320762;28;20056;-72
2022/08/18 06:01:33;;;;;;;11.00;8.70;;;;;;;23.36;100.00;99621.28;6321653;28;20420;-72
2022/08/18 06:04:33;;;;;;;12.63;8.20;;;;;;;23.45;100.00;99619.34;6318943;28;20048;-72
2022/08/18 06:07:43;;;;;;;11.27;8.30;;;;;;;23.57;100.00;99617.84;6321066;28;20101;-73
2022/08/18 06:10:47;;;;;;;13.45;8.98;;;;;;;23.67;100.00;99614.88;6322130;28;20480;-72
2022/08/18 06:13:48;;;;;;;13.93;8.32;;;;;;;23.81;100.00;99616.69;6303776;28;20048;-73
2022/08/18 06:17:34;;;;;;;15.23;8.50;;;;;;;24.00;100.00;99614.41;6322061;28;20135;-73
2022/08/18 06:20:44;;;;;;;10.48;7.78;;;;;;;24.16;100.00;99605.31;6320561;28;20423;-73
2022/08/18 06:24:04;;;;;;;12.27;7.68;;;;;;;24.32;100.00;99605.84;6320654;28;20040;-72
2022/08/18 06:27:08;;;;;;;12.18;7.40;;;;;;;24.46;100.00;99620.09;6320209;28;20403;-73
2022/08/18 06:30:18;;;;;;;9.77;6.93;;;;;;;24.65;100.00;99621.28;6320779;28;20381;-72
2022/08/18 06:33:34;;;;;;;12.02;7.72;;;;;;;24.83;100.00;99635.94;6320769;28;20400;-73
2022/08/18 06:36:46;;;;;;;12.10;7.43;;;;;;;24.93;100.00;99629.25;6321544;28;20113;-73
2022/08/18 06:39:50;;;;;;;13.88;7.00;;;;;;;25.03;94.45;99620.84;6303408;28;20130;-73
2022/08/18 06:42:51;;;;;;;10.18;7.05;;;;;;;25.21;92.95;99617.69;6320375;28;20040;-72
2022/08/18 06:45:51;;;;;;;12.03;6.60;;;;;;;25.33;91.31;99629.44;6318822;28;20065;-72
2022/08/18 06:48:58;;;;;;;10.77;6.78;;;;;;;25.50;90.98;99629.06;6321061;28;20056;-73
2022/08/18 06:52:27;;;;;;;10.25;6.47;;;;;;;25.72;92.03;99637.78;6303358;28;20435;-72
2022/08/18 06:55:36;;;;;;;9.15;6.50;;;;;;;25.74;91.43;99630.38;6319706;28;20051;-72
2022/08/18 06:58:36;;;;;;;11.98;6.28;;;;;;;25.93;83.56;99634.94;6318511;28;20480;-72
2022/08/18 07:01:37;;;;;;;11.33;6.93;;;;;;;26.10;87.13;99643.38;6323997;28;20036;-72
2022/08/18 07:04:58;;;;;;;8.68;6.47;;;;;;;26.21;83.49;99643.81;6325212;28;20047;-72
2022/08/18 07:08:13;;;;;;;7.72;6.10;;;;;;;26.43;85.00;99645.22;6324273;28;20131;-72
2022/08/18 07:11:23;;;;;;;12.43;6.22;;;;;;;26.68;84.14;99649.97;6291307;28;20083;-72
2022/08/18 07:14:24;;;;;;;11.07;6.22;;;;;;;26.83;78.70;99647.06;6324981;28;20051;-72
2022/08/18 07:17:29;;;;;;;9.07;6.65;;;;;;;26.93;84.09;99650.13;6324814;28;20066;-72
2022/08/18 07:20:40;;;;;;;7.40;6.10;;;;;;;26.94;74.94;99641.88;6325944;28;20040;-72
2022/08/18 07:23:40;;;;;;;10.07;5.85;;;;;;;27.09;75.70;99652.31;6307517;28;20051;-71
2022/08/18 07:27:03;;;;;;;12.65;5.95;;;;;;;27.24;78.77;99648.59;6321680;28;20064;-72
2022/08/18 07:30:23;;;;;;;8.35;5.57;;;;;;;27.42;73.05;99634.53;6313678;28;20037;-73
2022/08/18 07:33:26;;;;;;;8.35;5.80;;;;;;;27.38;72.99;99634.13;6315783;28;20047;-72
2022/08/18 07:36:34;;;;;;;9.20;5.90;;;;;;;27.47;71.58;99642.75;6323411;28;20419;-72
2022/08/18 07:40:14;;;;;;;11.98;6.10;;;;;;;27.52;73.38;99642.91;6325169;28;20126;-72
2022/08/18 07:43:33;;;;;;;9.15;6.05;;;;;;;27.86;72.52;99655.13;6276975;28;20088;-72
2022/08/18 07:46:44;;;;;;;13.32;6.22;;;;;;;27.95;69.91;99647.63;6324803;28;20124;-71
2022/08/18 07:49:46;;;;;;;17.27;6.85;;;;;;;28.00;70.43;99639.75;6325567;28;20040;-71
2022/08/18 07:53:04;;;;;;;8.63;6.00;;;;;;;28.18;68.94;99643.53;6325210;28;20480;-72
2022/08/18 07:56:31;;;;;;;7.82;6.30;;;;;;;28.48;72.16;99647.19;6303686;28;20098;-72
2022/08/18 08:00:02;;;;;;;14.05;6.20;;;;;;;28.62;68.07;99641.72;6311426;28;20056;-72
2022/08/18 08:03:24;;;;;;;9.60;6.40;;;;;;;28.79;65.00;99658.91;6306640;28;20067;-71
2022/08/18 08:06:35;;;;;;;12.00;6.55;;;;;;;28.69;64.60;99654.03;6307231;28;20392;-72
2022/08/18 08:09:51;;;;;;;9.18;6.28;;;;;;;28.84;63.76;99656.38;6323786;28;20165;-72
2022/08/18 08:12:55;;;;;;;10.73;6.13;;;;;;;28.76;62.58;99655.84;6324214;28;20051;-72
2022/08/18 08:16:34;;;;;;;12.48;6.10;;;;;;;28.86;62.98;99646.22;6324466;28;20044;-72
2022/08/18 08:20:11;;;;;;;8.27;6.28;;;;;;;29.03;63.14;99627.63;6313881;28;20067;-72
2022/08/18 08:23:32;;;;;;;7.97;6.18;;;;;;;29.41;62.49;99623.91;6311459;28;20067;-72
2022/08/18 08:26:59;;;;;;;8.70;6.07;;;;;;;29.68;63.46;99621.66;6322602;28;20059;-72
2022/08/18 08:30:05;;;;;;;10.30;6.60;;;;;;;29.75;62.24;99623.44;6321250;28;20048;-72
2022/08/18 08:33:20;;;;;;;9.73;6.70;;;;;;;29.84;59.25;99622.91;6305920;28;20056;-72
2022/08/18 08:36:29;;;;;;;10.35;6.00;;;;;;;29.88;58.91;99624.06;6323878;28;20511;-72
2022/08/18 08:40:00;;;;;;;12.57;6.80;;;;;;;29.82;61.84;99622.31;6322595;28;20427;-72
2022/08/18 08:43:07;;;;;;;9.15;5.70;;;;;;;30.13;56.99;99620.38;6319859;28;20562;-72
2022/08/18 08:46:36;;;;;;;7.97;6.18;;;;;;;30.11;56.59;99612.53;6322412;28;20051;-71
2022/08/18 08:49:44;;;;;;;10.38;6.25;;;;;;;30.11;57.63;99619.78;6321356;28;20483;-72
2022/08/18 08:52:54;;;;;;;7.57;6.00;;;;;;;30.17;57.79;99616.16;6304128;28;20109;-72
2022/08/18 08:55:59;;;;;;;8.88;5.80;;;;;;;30.49;56.03;99626.59;6321619;28;20074;-72
2022/08/18 08:59:08;;;;;;;9.73;5.90;;;;;;;30.63;51.09;99629.88;6321722;28;20048;-72
2022/08/18 09:02:32;;;;;;;10.10;5.88;;;;;;;30.60;52.96;99633.88;6322100;28;20047;-72
2022/08/18 09:06:00;;;;;;;14.13;6.18;;;;;;;30.78;54.61;99634.78;6304121;28;20044;-72
2022/08/18 09:09:35;;;;;;;11.43;6.03;;;;;;;31.09;55.04;99642.50;6320356;28;20467;-72
2022/08/18 09:12:57;;;;;;;10.68;5.97;;;;;;;31.05;56.42;99640.47;6321922;28;20040;-72
2022/08/18 09:16:32;;;;;;;6.82;5.35;;;;;;;31.08;50.30;99630.06;6321502;28;20048;-71
2022/08/18 09:19:39;;;;;;;9.30;5.20;;;;;;;30.90;50.46;99630.22;6321690;28;20400;-71
2022/08/18 09:23:03;;;;;;;14.25;5.80;;;;;;;31.04;51.38;99631.59;6321490;28;20123;-72
2022/08/18 09:26:39;;;;;;;9.43;5.20;;;;;;;31.28;46.64;99634.22;6321357;28;20579;-72
2022/08/18 09:29:49;;;;;;;9.27;4.80;;;;;;;31.57;48.26;99626.13;6321483;28;20123;-72
2022/08/18 09:33:10;;;;;;;13.80;5.43;;;;;;;31.55;49.62;99630.97;6322705;28;20047;-72
2022/08/18 09:36:35;;;;;;;10.43;5.20;;;;;;;32.09;49.80;99634.91;6304329;28;20441;-72
2022/08/18 09:43:33;;;;;;;8.23;5.40;;;;;;;32.12;47.74;99614.69;6322226;28;20032;-72
2022/08/18 09:46:40;;;;;;;10.18;5.13;;;;;;;32.27;44.83;99617.66;6283197;28;20052;-72
2022/08/18 09:49:45;;;;;;;10.40;5.15;;;;;;;32.24;42.82;99620.81;6319749;28;20058;-72
2022/08/18 09:52:47;;;;;;;8.38;4.93;;;;;;;32.05;43.14;99616.75;6319530;28;20494;-72
2022/08/18 09:55:54;;;;;;;12.73;5.07;;;;;;;32.42;47.07;99613.53;6319757;28;21705;-72
2022/08/18 09:59:00;;;;;;;11.15;4.97;;;;;;;32.98;47.82;99619.69;6335776;28;20044;-72
2022/08/18 10:02:05;;;;;;;9.05;4.93;;;;;;;33.14;48.26;99625.34;6322938;28;20476;-72
2022/08/18 10:05:18;;;;;;;8.82;4.97;;;;;;;32.87;42.65;99613.34;6304514;28;20040;-72
2022/08/18 10:08:56;;;;;;;12.38;5.60;;;;;;;33.15;42.12;99619.66;6322684;28;20044;-73
2022/08/18 10:12:09;;;;;;;6.75;4.78;;;;;;;33.47;45.28;99627.03;6322954;28;20048;-72
2022/08/18 10:15:34;;;;;;;11.38;5.00;;;;;;;33.62;41.21;99624.50;6304418;28;20075;-72
2022/08/18 10:18:41;;;;;;;15.90;5.10;;;;;;;33.61;42.92;99627.47;6321321;28;20051;-72
2022/08/18 10:21:54;;;;;;;7.75;5.28;;;;;;;33.89;42.13;99634.47;6321430;28;20111;-73
2022/08/18 10:25:02;;;;;;;7.93;4.43;;;;;;;33.44;39.35;99630.22;6322318;28;20113;-72
2022/08/18 10:28:06;;;;;;;8.05;5.28;;;;;;;33.69;41.36;99630.53;6321278;28;20044;-72
2022/08/18 10:31:07;;;;;;;7.38;5.00;;;;;;;33.80;40.24;99625.22;6299634;28;20110;-72
2022/08/18 10:34:10;;;;;;;8.88;5.28;;;;;;;32.69;40.24;99625.28;6289662;28;20045;-72
2022/08/18 10:37:40;;;;;;;11.52;5.03;;;;;;;33.48;38.89;99612.44;6311220;28;20495;-72
2022/08/18 10:40:42;;;;;;;7.17;5.00;;;;;;;33.64;38.99;99614.25;6302823;28;20059;-72
2022/08/18 10:43:46;;;;;;;9.25;5.32;;;;;;;34.09;38.03;99620.31;6294043;28;20052;-72
2022/08/18 10:46:47;;;;;;;10.30;5.20;;;;;;;34.20;43.43;99623.91;6301633;28;20048;-73
2022/08/18 10:49:52;;;;;;;8.00;5.05;;;;;;;34.49;38.40;99608.13;6320907;28;20377;-72
2022/08/18 10:53:04;;;;;;;7.70;4.85;;;;;;;34.16;38.55;99617.41;6321589;28;20032;-72
2022/08/18 10:56:32;;;;;;;8.38;4.90;;;;;;;34.17;38.87;99610.91;6302501;28;20040;-72
2022/08/18 10:59:46;;;;;;;9.13;5.07;;;;;;;34.43;41.52;99611.88;6308450;28;20465;-73
2022/08/18 11:03:16;;;;;;;9.55;4.70;;;;;;;33.88;39.02;99614.72;6303065;28;20469;-72
2022/08/18 11:06:23;;;;;;;11.80;4.90;;;;;;;34.08;38.59;99613.28;6319591;28;20475;-72
2022/08/18 11:09:26;;;;;;;10.20;4.72;;;;;;;34.28;37.84;99608.00;6319974;28;20667;-73
2022/08/18 11:12:46;;;;;;;6.22;4.35;;;;;;;33.99;40.06;99615.63;6319938;28;20066;-72
2022/08/18 11:15:59;;;;;;;8.30;4.90;;;;;;;34.65;38.04;99606.34;6317616;28;20048;-72
2022/08/18 11:19:09;;;;;;;15.57;5.32;;;;;;;34.58;35.97;99606.56;6318960;28;20040;-72
2022/08/18 11:22:27;;;;;;;10.83;5.30;;;;;;;34.68;37.60;99603.94;6321130;28;20036;-72
2022/08/18 11:25:35;;;;;;;6.72;4.80;;;;;;;34.79;35.71;99598.56;6318977;28;20040;-72
2022/08/18 11:28:36;;;;;;;11.73;5.10;;;;;;;34.77;36.93;99587.19;6303011;28;20143;-72
2022/08/18 11:31:37;;;;;;;14.23;4.82;;;;;;;34.93;37.86;99588.88;6318633;28;20048;-72
2022/08/18 11:34:50;;;;;;;10.93;4.82;;;;;;;34.82;36.30;99593.44;6318571;28;20498;-72
2022/08/18 11:38:00;;;;;;;8.73;4.97;;;;;;;34.54;37.60;99582.97;6318246;28;20044;-72
2022/08/18 11:41:19;;;;;;;7.63;4.70;;;;;;;34.34;35.76;99575.56;6320096;28;20067;-72
2022/08/18 11:44:27;;;;;;;8.20;4.80;;;;;;;34.83;37.33;99573.38;6303396;28;20652;-72
2022/08/18 11:47:32;;;;;;;6.95;5.20;;;;;;;35.01;39.07;99585.63;6325061;28;20411;-72
2022/08/18 11:50:33;;;;;;;10.63;5.20;;;;;;;35.04;36.01;99581.56;6326006;28;20044;-72
2022/08/18 11:53:50;;;;;;;11.73;5.00;;;;;;;34.42;36.42;99573.16;6324117;28;20082;-71
2022/08/18 11:56:51;;;;;;;12.50;5.05;;;;;;;34.55;35.61;99565.63;6324686;28;20048;-71
2022/08/18 11:59:52;;;;;;;10.68;4.65;;;;;;;34.84;35.21;99557.91;6306412;28;20098;-72
2022/08/18 12:03:22;;;;;;;9.82;4.97;;;;;;;34.98;35.01;99559.06;6324257;28;20119;-72
2022/08/18 12:06:30;;;;;;;9.30;4.72;;;;;;;34.77;34.45;99558.19;6306947;28;20040;-72
2022/08/18 12:09:39;;;;;;;11.10;5.10;;;;;;;34.72;34.81;99563.59;6324912;28;20051;-72
2022/08/18 12:12:46;;;;;;;11.57;4.93;;;;;;;34.84;36.52;99558.75;6325533;28;20162;-72
2022/08/18 12:16:08;;;;;;;8.65;5.05;;;;;;;34.77;34.17;99558.19;6299191;28;20052;-71
2022/08/18 12:19:12;;;;;;;11.73;5.25;;;;;;;34.56;36.22;99556.44;6298453;28;20481;-72
2022/08/18 12:22:17;;;;;;;9.05;4.80;;;;;;;34.25;35.63;99542.75;6298734;28;20504;-71
2022/08/18 12:25:19;;;;;;;8.32;4.95;;;;;;;34.43;37.53;99539.59;6297371;28;20044;-71
2022/08/18 12:28:20;;;;;;;9.95;5.40;;;;;;;34.63;35.87;99528.00;6280703;28;20519;-71
2022/08/18 12:31:21;;;;;;;7.75;5.43;;;;;;;34.48;35.56;99530.69;6299199;28;20044;-72
2022/08/18 12:34:25;;;;;;;9.85;5.28;;;;;;;34.10;36.61;99513.69;6282701;28;20067;-71
2022/08/18 12:37:28;;;;;;;7.22;5.00;;;;;;;34.35;35.80;99517.59;6316862;28;20059;-71
2022/08/18 12:40:32;;;;;;;11.88;5.47;;;;;;;34.46;34.70;99511.97;6314824;28;20058;-71
2022/08/18 12:43:33;;;;;;;7.78;5.07;;;;;;;34.48;35.31;99509.00;6324233;28;20048;-71
2022/08/18 12:46:36;;;;;;;11.38;5.30;;;;;;;34.46;35.38;99497.63;6321882;28;20071;-71
2022/08/18 12:49:37;;;;;;;10.13;5.45;;;;;;;34.40;38.46;99496.78;6324233;28;20038;-71
2022/08/18 12:52:38;;;;;;;11.27;5.22;;;;;;;34.23;40.00;99499.69;6323584;28;20044;-71
2022/08/18 12:55:42;;;;;;;7.97;5.68;;;;;;;34.31;36.14;99498.38;6305841;28;20437;-71
2022/08/18 12:58:43;;;;;;;12.40;5.55;;;;;;;34.07;35.95;99498.75;6323407;28;20465;-71
2022/08/18 13:01:46;;;;;;;8.57;4.95;;;;;;;33.87;35.95;99496.78;6323830;28;20105;-71
2022/08/18 13:04:47;;;;;;;8.50;5.10;;;;;;;33.95;35.87;99497.34;6323384;28;20109;-71
2022/08/18 13:07:48;;;;;;;9.13;5.43;;;;;;;33.25;36.92;99491.91;6299575;28;20474;-71
2022/08/18 13:10:49;;;;;;;8.25;5.28;;;;;;;33.53;36.78;99493.50;6297106;28;20049;-72
2022/08/18 13:13:51;;;;;;;8.88;5.53;;;;;;;33.77;39.79;99477.75;6296772;28;20056;-70
2022/08/18 13:16:54;;;;;;;14.25;5.57;;;;;;;33.91;35.24;99478.94;6298203;28;20072;-71
2022/08/18 13:19:55;;;;;;;10.52;5.32;;;;;;;33.77;39.05;99476.94;6298064;28;20557;-71
2022/08/18 13:22:56;;;;;;;12.00;5.13;;;;;;;33.67;36.47;99483.09;6280125;28;20087;-71
2022/08/18 13:26:00;;;;;;;11.20;5.53;;;;;;;33.66;36.08;99476.03;6297549;28;20048;-71
2022/08/18 13:29:03;;;;;;;7.03;5.18;;;;;;;33.44;35.23;99476.13;6296857;28;20036;-71
2022/08/18 13:32:08;;;;;;;11.82;5.45;;;;;;;33.59;36.63;99484.34;6296734;28;20043;-70
2022/08/18 13:35:11;;;;;;;8.57;5.50;;;;;;;33.46;37.49;99468.56;6296719;28;20127;-71
2022/08/18 13:38:19;;;;;;;8.63;5.82;;;;;;;33.64;39.01;99475.50;6279467;28;20568;-71
2022/08/18 13:41:21;;;;;;;13.93;5.80;;;;;;;33.48;37.32;99467.25;6296995;28;20080;-71
2022/08/18 13:44:22;;;;;;;11.77;5.72;;;;;;;33.55;39.59;99469.72;6297245;28;20047;-71
2022/08/18 13:47:26;;;;;;;11.73;5.35;;;;;;;33.15;39.30;99471.00;6296930;28;20083;-71
2022/08/18 13:50:27;;;;;;;10.90;5.50;;;;;;;33.17;39.44;99471.56;6282702;28;20079;-71
2022/08/18 13:53:29;;;;;;;8.10;5.35;;;;;;;33.11;39.82;99468.03;6297593;28;20047;-71
2022/08/18 13:56:30;;;;;;;13.15;5.47;;;;;;;33.11;40.75;99470.72;6296076;28;20135;-71
2022/08/18 13:59:32;;;;;;;7.80;5.57;;;;;;;33.16;37.71;99475.34;6296762;28;20415;-71
2022/08/18 14:02:33;;;;;;;16.73;5.07;;;;;;;33.11;37.64;99480.69;6297218;28;20063;-71
2022/08/18 14:05:37;;;;;;;7.20;5.40;;;;;;;33.10;40.30;99479.09;6297244;28;20045;-71
2022/08/18 14:08:37;;;;;;;7.68;4.93;;;;;;;33.02;38.39;99469.50;6278647;28;20550;-71
2022/08/18 14:11:38;;;;;;;9.63;4.72;;;;;;;32.69;38.95;99487.53;6305181;28;20048;-71
2022/08/18 14:14:39;;;;;;;7.53;5.18;;;;;;;32.76;37.16;99476.56;6310355;28;20047;-71
2022/08/18 14:17:42;;;;;;;8.30;5.22;;;;;;;33.02;36.22;99493.03;6320524;28;20466;-71
2022/08/18 14:27:33;;;;;;;9.68;5.07;;;;;;;32.64;35.63;99503.69;6318348;28;20051;-71
2022/08/18 14:30:36;;;;;;;11.23;5.38;;;;;;;32.49;37.04;99511.56;6315088;28;20051;-71
2022/08/18 14:33:37;;;;;;;10.68;5.03;;;;;;;32.41;36.18;99515.53;6292283;28;20048;-71
2022/08/18 14:36:39;;;;;;;7.78;5.13;;;;;;;32.62;36.11;99511.25;6320285;28;20047;-71
2022/08/18 14:39:43;;;;;;;9.75;4.60;;;;;;;32.68;38.24;99506.72;6320340;28;20397;-71
2022/08/18 14:42:44;;;;;;;8.13;4.85;;;;;;;32.65;37.18;99513.41;6285557;28;20052;-71
2022/08/18 14:45:48;;;;;;;7.80;5.00;;;;;;;32.70;39.48;99518.09;6295666;28;20109;-72
2022/08/18 14:48:51;;;;;;;9.85;5.05;;;;;;;32.63;35.96;99514.75;6296809;28;20056;-71
2022/08/18 14:51:53;;;;;;;8.32;5.03;;;;;;;32.62;37.04;99507.72;6312326;28;20135;-71
2022/08/18 14:54:54;;;;;;;10.35;5.25;;;;;;;32.64;37.18;99514.50;6313695;28;20135;-71
2022/08/18 14:57:55;;;;;;;7.20;4.68;;;;;;;32.56;36.98;99511.44;6320596;28;20087;-71
2022/08/18 15:01:02;;;;;;;10.82;5.28;;;;;;;32.61;36.16;99514.19;6302759;28;20472;-71